Time;durP1;ratioP1;P1;durP2;ratioP2;P2;SDS_P1;SDS_P2;PMS_P1;PMS_P2;Temp;Humidity;BMP_temperature;BMP_pressure;BME280_temperature;BME280_humidity;BME280_pressure;Samples;Min_cycle;Max_cycle;Signal;HPM_P1;HPM_P2
2023/10/04 00:00:22;;;;;;;1.65;1.52;;;19.80;71.80;;;;;;5114743;28;20185;-76
2023/10/04 00:02:52;;;;;;;1.65;1.30;;;19.80;71.60;;;;;;5115646;28;20294;-76
2023/10/04 00:05:22;;;;;;;2.72;1.58;;;19.70;71.70;;;;;;5115180;28;20181;-74
2023/10/04 00:07:48;;;;;;;2.00;1.65;;;19.80;71.70;;;;;;5114710;28;20176;-76
2023/10/04 00:10:14;;;;;;;1.80;1.45;;;19.70;71.70;;;;;;5115065;28;20260;-74
2023/10/04 00:12:41;;;;;;;1.95;1.50;;;19.70;71.70;;;;;;5115377;28;20176;-75
2023/10/04 00:15:10;;;;;;;1.92;1.45;;;19.70;71.70;;;;;;5114356;28;20209;-74
2023/10/04 00:17:42;;;;;;;2.05;1.50;;;19.70;72.50;;;;;;5114018;28;20177;-74
2023/10/04 00:20:16;;;;;;;1.33;1.23;;;19.70;71.70;;;;;;5115033;28;20579;-73
2023/10/04 00:22:43;;;;;;;1.63;1.45;;;19.70;71.70;;;;;;5114600;28;20178;-73
2023/10/04 00:25:12;;;;;;;2.58;1.58;;;19.70;71.70;;;;;;5114801;28;20608;-73
2023/10/04 00:27:41;;;;;;;1.58;1.40;;;19.70;71.70;;;;;;5115123;28;20203;-75
2023/10/04 00:30:16;;;;;;;2.17;1.30;;;19.70;71.60;;;;;;5114070;28;20606;-74
2023/10/04 00:32:42;;;;;;;2.28;1.55;;;19.70;71.50;;;;;;5114897;28;20177;-76
2023/10/04 00:35:17;;;;;;;1.60;1.30;;;19.70;71.70;;;;;;5114725;28;20300;-74
2023/10/04 00:37:44;;;;;;;1.40;1.30;;;19.70;71.70;;;;;;5114125;28;20252;-75
2023/10/04 00:40:13;;;;;;;1.40;1.30;;;19.70;71.70;;;;;;5114041;28;20185;-75
2023/10/04 00:42:40;;;;;;;1.70;1.35;;;19.70;71.70;;;;;;5113890;28;20223;-75
2023/10/04 00:45:06;;;;;;;1.58;1.35;;;19.70;71.50;;;;;;5114367;28;20197;-75
2023/10/04 00:47:32;;;;;;;1.35;1.25;;;19.70;71.70;;;;;;5114239;28;20225;-76
2023/10/04 00:50:01;;;;;;;2.20;1.42;;;19.70;71.70;;;;;;5095727;28;20230;-75
2023/10/04 00:52:32;;;;;;;2.17;1.40;;;19.70;71.60;;;;;;5096966;28;20169;-76
2023/10/04 00:54:57;;;;;;;2.40;1.52;;;19.70;71.50;;;;;;5114196;28;20205;-75
2023/10/04 00:57:23;;;;;;;2.08;1.60;;;19.60;71.70;;;;;;5078612;28;20627;-76
2023/10/04 00:59:49;;;;;;;2.63;2.10;;;19.70;72.60;;;;;;5096175;28;20194;-75
2023/10/04 01:02:14;;;;;;;1.80;1.50;;;19.70;71.60;;;;;;5096025;28;20165;-75
2023/10/04 01:04:40;;;;;;;2.40;1.60;;;19.60;71.70;;;;;;5113650;28;20665;-75
2023/10/04 01:07:06;;;;;;;1.52;1.35;;;19.70;71.50;;;;;;5114105;28;20594;-73
2023/10/04 01:09:31;;;;;;;2.08;1.50;;;19.70;71.70;;;;;;5096018;28;20169;-75
2023/10/04 01:11:58;;;;;;;1.67;1.45;;;19.60;71.60;;;;;;5095212;28;20165;-75
2023/10/04 01:14:32;;;;;;;2.08;1.42;;;19.70;71.60;;;;;;5113727;28;20207;-74
2023/10/04 01:16:58;;;;;;;2.08;1.52;;;19.70;71.70;;;;;;5114189;28;20187;-74
2023/10/04 01:19:23;;;;;;;2.15;1.60;;;19.60;71.70;;;;;;5113249;28;20173;-73
2023/10/04 01:21:52;;;;;;;2.78;1.65;;;19.60;71.70;;;;;;5114040;28;20169;-74
2023/10/04 01:24:18;;;;;;;1.45;1.17;;;19.60;71.50;;;;;;5113486;28;20177;-72
2023/10/04 01:26:45;;;;;;;1.63;1.38;;;19.60;71.70;;;;;;5113164;28;20181;-75
2023/10/04 01:29:12;;;;;;;1.38;1.10;;;19.60;71.50;;;;;;5113595;28;20195;-75
2023/10/04 01:31:38;;;;;;;1.60;1.48;;;19.50;71.60;;;;;;5113901;28;20285;-76
2023/10/04 01:34:06;;;;;;;1.63;1.52;;;19.60;71.70;;;;;;5112818;28;20236;-75
2023/10/04 01:36:32;;;;;;;1.83;1.50;;;19.60;71.70;;;;;;5113544;28;20180;-74
2023/10/04 01:38:58;;;;;;;2.25;1.60;;;19.60;71.60;;;;;;5112480;28;20631;-74
2023/10/04 01:41:25;;;;;;;1.92;1.45;;;19.70;71.70;;;;;;5113222;28;20177;-74
2023/10/04 01:43:53;;;;;;;1.80;1.30;;;19.60;71.70;;;;;;5113428;28;20177;-76
2023/10/04 01:46:18;;;;;;;2.13;1.40;;;19.60;71.70;;;;;;5112193;28;20647;-76
2023/10/04 01:48:44;;;;;;;1.42;1.20;;;19.60;71.60;;;;;;5113643;28;20181;-76
2023/10/04 01:51:10;;;;;;;2.75;1.58;;;19.60;71.70;;;;;;5113254;28;20176;-75
2023/10/04 01:53:35;;;;;;;1.52;1.17;;;19.60;71.70;;;;;;5112653;28;20172;-76
2023/10/04 01:56:03;;;;;;;3.35;1.88;;;19.60;71.60;;;;;;5113044;28;20193;-75
2023/10/04 01:58:29;;;;;;;1.83;1.63;;;19.60;71.60;;;;;;5113402;28;20169;-75
2023/10/04 02:00:55;;;;;;;1.70;1.10;;;19.60;71.60;;;;;;5112956;28;20193;-75
2023/10/04 02:03:21;;;;;;;2.05;1.42;;;19.60;71.60;;;;;;5112920;28;20177;-75
2023/10/04 02:05:50;;;;;;;2.28;1.52;;;19.60;71.50;;;;;;5112344;28;20184;-76
2023/10/04 02:08:16;;;;;;;1.60;1.30;;;19.60;71.60;;;;;;5113522;28;20181;-75
2023/10/04 02:10:41;;;;;;;2.60;1.77;;;19.50;71.60;;;;;;5113769;28;20683;-74
2023/10/04 02:13:08;;;;;;;2.15;1.50;;;19.50;71.40;;;;;;5113196;28;20211;-73
2023/10/04 02:15:39;;;;;;;2.67;1.70;;;19.50;71.60;;;;;;5112307;28;20670;-75
2023/10/04 02:18:04;;;;;;;2.03;1.55;;;19.50;71.60;;;;;;5112949;28;20210;-73
2023/10/04 02:20:33;;;;;;;1.88;1.40;;;19.60;71.70;;;;;;5112942;28;20697;-73
2023/10/04 02:22:59;;;;;;;1.63;1.50;;;19.50;72.30;;;;;;5112059;28;20174;-73
2023/10/04 02:25:25;;;;;;;2.05;1.60;;;19.50;71.60;;;;;;5113037;28;20560;-73
2023/10/04 02:27:55;;;;;;;2.45;1.60;;;19.60;71.70;;;;;;5112888;28;20204;-75
2023/10/04 02:30:26;;;;;;;1.88;1.25;;;19.60;71.60;;;;;;5111822;28;20654;-76
2023/10/04 02:32:53;;;;;;;2.47;1.40;;;19.60;71.70;;;;;;5112981;28;20222;-76
2023/10/04 02:35:25;;;;;;;2.05;1.48;;;19.60;71.60;;;;;;5111759;28;20208;-73
2023/10/04 02:37:54;;;;;;;1.60;1.50;;;19.60;71.70;;;;;;5112816;28;20169;-75
2023/10/04 02:40:27;;;;;;;1.77;1.40;;;19.60;71.60;;;;;;5113444;28;20599;-74
2023/10/04 02:42:54;;;;;;;2.45;1.58;;;19.50;71.60;;;;;;5116497;28;20177;-75
2023/10/04 02:45:20;;;;;;;2.30;1.38;;;19.50;71.40;;;;;;5116586;28;20183;-75
2023/10/04 02:47:48;;;;;;;2.78;1.67;;;19.50;71.60;;;;;;5116834;28;20225;-75
2023/10/04 02:50:15;;;;;;;1.98;1.30;;;19.50;71.40;;;;;;5115784;28;20226;-76
2023/10/04 02:52:40;;;;;;;2.28;1.63;;;19.50;71.60;;;;;;5116952;28;20173;-76
2023/10/04 02:55:06;;;;;;;1.63;1.13;;;19.50;71.60;;;;;;5116639;28;20317;-74
2023/10/04 02:57:32;;;;;;;2.65;1.35;;;19.50;71.40;;;;;;5115810;28;20173;-75
2023/10/04 02:59:58;;;;;;;2.60;1.60;;;19.50;71.60;;;;;;5116741;28;20177;-75
2023/10/04 03:02:24;;;;;;;2.63;1.40;;;19.50;71.40;;;;;;5116607;28;20177;-75
2023/10/04 03:04:51;;;;;;;1.73;1.50;;;19.50;71.50;;;;;;5115898;28;20695;-76
2023/10/04 03:07:17;;;;;;;3.28;1.70;;;19.40;71.60;;;;;;5116190;28;20177;-73
2023/10/04 03:09:43;;;;;;;1.85;1.30;;;19.50;71.70;;;;;;5116696;28;20177;-75
2023/10/04 03:12:10;;;;;;;3.30;1.65;;;19.50;71.60;;;;;;5115580;28;20250;-74
2023/10/04 03:14:36;;;;;;;1.27;1.17;;;19.50;71.60;;;;;;5116361;28;20224;-74
2023/10/04 03:17:02;;;;;;;1.65;1.40;;;19.50;71.60;;;;;;5116210;28;20169;-73
2023/10/04 03:19:28;;;;;;;2.28;1.73;;;19.50;71.50;;;;;;5115337;28;20184;-72
2023/10/04 03:21:53;;;;;;;1.48;1.00;;;19.50;71.60;;;;;;5116503;28;20177;-73
2023/10/04 03:24:19;;;;;;;2.90;1.70;;;19.50;71.40;;;;;;5115068;28;20177;-73
2023/10/04 03:26:45;;;;;;;1.50;1.25;;;19.40;71.40;;;;;;5116234;28;20258;-74
2023/10/04 03:29:15;;;;;;;1.45;1.35;;;19.40;71.40;;;;;;5115898;28;20173;-74
2023/10/04 03:31:41;;;;;;;1.20;1.10;;;19.50;71.60;;;;;;5115416;28;20177;-76
2023/10/04 03:34:07;;;;;;;1.92;1.45;;;19.50;71.60;;;;;;5115782;28;20197;-76
2023/10/04 03:36:34;;;;;;;2.08;1.55;;;19.40;71.50;;;;;;5115766;28;20631;-74
2023/10/04 03:39:03;;;;;;;1.58;1.48;;;19.50;71.50;;;;;;5115196;28;20248;-74
2023/10/04 03:41:29;;;;;;;1.92;1.50;;;19.40;71.60;;;;;;5115820;28;20204;-75
2023/10/04 03:43:55;;;;;;;1.85;1.20;;;19.40;71.40;;;;;;5115934;28;20173;-75
2023/10/04 03:46:20;;;;;;;1.83;1.33;;;19.50;71.60;;;;;;5114559;28;20213;-76
2023/10/04 03:48:47;;;;;;;1.90;1.40;;;19.40;71.50;;;;;;5116026;28;20230;-76
2023/10/04 03:51:13;;;;;;;1.60;1.27;;;19.40;71.50;;;;;;5115533;28;20285;-75
2023/10/04 03:53:41;;;;;;;1.60;1.27;;;19.40;71.40;;;;;;5115073;28;20165;-76
2023/10/04 03:56:10;;;;;;;1.23;1.13;;;19.40;71.40;;;;;;5115500;28;20318;-74
2023/10/04 03:58:36;;;;;;;1.35;1.20;;;19.40;71.40;;;;;;5115566;28;20180;-74
2023/10/04 04:01:02;;;;;;;2.10;1.67;;;19.40;71.60;;;;;;5114506;28;20173;-74
2023/10/04 04:03:28;;;;;;;1.75;1.38;;;19.40;71.60;;;;;;5115542;28;20181;-76
2023/10/04 04:05:54;;;;;;;1.40;1.30;;;19.40;71.50;;;;;;5115521;28;20174;-75
2023/10/04 04:08:20;;;;;;;3.88;1.60;;;19.40;71.40;;;;;;5114363;28;20177;-74
2023/10/04 04:10:46;;;;;;;1.50;1.30;;;19.40;71.50;;;;;;5115368;28;20226;-74
2023/10/04 04:13:13;;;;;;;1.00;0.90;;;19.40;71.50;;;;;;5114999;28;20211;-73
2023/10/04 04:15:39;;;;;;;2.83;1.38;;;19.40;71.50;;;;;;5114363;28;20241;-75
2023/10/04 04:18:06;;;;;;;1.40;1.30;;;19.40;71.60;;;;;;5115217;28;20600;-73
2023/10/04 04:20:35;;;;;;;1.90;1.60;;;19.40;71.50;;;;;;5114482;28;20647;-73
2023/10/04 04:23:02;;;;;;;2.17;1.50;;;19.40;71.60;;;;;;5115018;28;20205;-73
2023/10/04 04:25:29;;;;;;;2.42;1.45;;;19.40;71.40;;;;;;5114923;28;20181;-74
2023/10/04 04:27:56;;;;;;;2.00;1.52;;;19.40;71.50;;;;;;5114422;28;20239;-75
2023/10/04 04:30:23;;;;;;;1.17;1.13;;;19.40;71.60;;;;;;5114737;28;20196;-76
2023/10/04 04:32:52;;;;;;;2.63;1.42;;;19.40;71.50;;;;;;5115079;28;20165;-76
2023/10/04 04:35:30;;;;;;;2.13;1.30;;;19.30;71.40;;;;;;5113923;28;20272;-74
2023/10/04 04:37:57;;;;;;;1.50;1.40;;;19.40;71.50;;;;;;5114937;28;20177;-76
2023/10/04 04:40:27;;;;;;;1.13;1.00;;;19.40;71.60;;;;;;5114623;28;20696;-75
2023/10/04 04:42:53;;;;;;;2.25;1.48;;;19.40;71.50;;;;;;5114186;28;20177;-76
2023/10/04 04:45:22;;;;;;;2.00;1.27;;;19.30;71.40;;;;;;5114492;28;20180;-76
2023/10/04 04:47:49;;;;;;;1.92;1.23;;;19.30;71.40;;;;;;5114562;28;20225;-76
2023/10/04 04:50:16;;;;;;;2.47;1.65;;;19.30;71.50;;;;;;5113482;28;20188;-76
2023/10/04 04:52:42;;;;;;;2.05;1.42;;;19.30;71.40;;;;;;5114377;28;20576;-77
2023/10/04 04:55:10;;;;;;;2.03;1.30;;;19.30;71.40;;;;;;5114102;28;20292;-74
2023/10/04 04:57:36;;;;;;;3.03;1.63;;;19.30;71.40;;;;;;5113774;28;20188;-76
2023/10/04 05:00:30;;;;;;;1.20;1.05;;;19.30;71.50;;;;;;5114458;28;20177;-76
2023/10/04 05:02:47;;;;;;;1.80;1.20;;;19.30;71.40;;;;;;5113095;28;20170;-76
2023/10/04 05:05:13;;;;;;;1.42;1.23;;;19.30;71.50;;;;;;5114032;28;20208;-76
2023/10/04 05:07:40;;;;;;;1.48;1.38;;;19.30;71.40;;;;;;5114602;28;20623;-75
2023/10/04 05:10:10;;;;;;;1.58;1.30;;;19.30;71.40;;;;;;5113750;28;20193;-74
2023/10/04 05:12:37;;;;;;;1.40;1.10;;;19.30;71.40;;;;;;5114408;28;20173;-76
2023/10/04 05:15:08;;;;;;;1.25;1.15;;;19.30;71.50;;;;;;5114003;28;20589;-74
2023/10/04 05:17:34;;;;;;;1.63;1.45;;;19.30;71.40;;;;;;5113538;28;20256;-75
2023/10/04 05:19:59;;;;;;;1.45;1.35;;;19.30;71.40;;;;;;5113882;28;20181;-74
2023/10/04 05:22:25;;;;;;;1.33;1.23;;;19.30;71.50;;;;;;5113845;28;20181;-74
2023/10/04 05:24:54;;;;;;;1.77;1.50;;;19.30;71.50;;;;;;5113145;28;20174;-74
2023/10/04 05:27:20;;;;;;;2.03;1.23;;;19.30;71.50;;;;;;5113578;28;20165;-74
2023/10/04 05:29:45;;;;;;;2.72;1.48;;;19.30;71.50;;;;;;5114002;28;20271;-76
2023/10/04 05:32:11;;;;;;;1.60;1.50;;;19.30;71.40;;;;;;5112811;28;20623;-76
2023/10/04 05:34:39;;;;;;;2.30;1.42;;;19.30;71.40;;;;;;5113483;28;20727;-76
2023/10/04 05:37:05;;;;;;;1.20;1.10;;;19.30;71.50;;;;;;5113630;28;20242;-75
2023/10/04 05:39:32;;;;;;;1.40;1.27;;;19.30;71.50;;;;;;5112815;28;20650;-75
2023/10/04 05:41:59;;;;;;;2.45;1.30;;;19.30;71.40;;;;;;5113352;28;20177;-74
2023/10/04 05:44:25;;;;;;;1.70;1.05;;;19.20;71.30;;;;;;5113435;28;20177;-77
2023/10/04 05:46:53;;;;;;;2.20;1.40;;;19.20;71.40;;;;;;5112728;28;20228;-77
2023/10/04 05:49:19;;;;;;;1.50;1.40;;;19.20;71.40;;;;;;5112887;28;20173;-77
2023/10/04 05:51:45;;;;;;;2.20;1.25;;;19.20;71.40;;;;;;5113625;28;20177;-77
2023/10/04 05:54:11;;;;;;;1.67;1.30;;;19.20;71.40;;;;;;5112488;28;20205;-76
2023/10/04 05:56:36;;;;;;;1.73;1.40;;;19.30;71.50;;;;;;5113370;28;20639;-75
2023/10/04 05:59:02;;;;;;;1.23;1.13;;;19.20;71.40;;;;;;5112428;28;20272;-74
2023/10/04 06:01:28;;;;;;;2.05;1.25;;;19.30;71.40;;;;;;5113107;28;20200;-77
2023/10/04 06:03:55;;;;;;;1.52;1.20;;;19.20;71.30;;;;;;5113018;28;20177;-76
2023/10/04 06:06:20;;;;;;;1.88;1.35;;;19.20;71.20;;;;;;5112025;28;20173;-75
2023/10/04 06:08:46;;;;;;;2.25;1.23;;;19.20;71.40;;;;;;5113486;28;20222;-76
2023/10/04 06:11:11;;;;;;;1.65;1.30;;;19.20;71.30;;;;;;5113051;28;20211;-74
2023/10/04 06:13:37;;;;;;;1.70;1.27;;;19.30;71.40;;;;;;5112385;28;20170;-76
2023/10/04 06:16:04;;;;;;;1.75;1.50;;;19.20;71.30;;;;;;5111910;28;20266;-74
2023/10/04 06:18:30;;;;;;;1.40;1.30;;;19.20;71.20;;;;;;5112686;28;20173;-74
2023/10/04 06:20:55;;;;;;;1.50;1.40;;;19.20;71.20;;;;;;5112510;28;20702;-74
2023/10/04 06:23:22;;;;;;;1.67;1.58;;;19.20;71.30;;;;;;5112505;28;20728;-73
2023/10/04 06:25:49;;;;;;;2.05;1.38;;;19.20;71.10;;;;;;5113135;28;20177;-74
2023/10/04 06:28:15;;;;;;;2.90;1.30;;;19.20;71.20;;;;;;5111823;28;20511;-74
2023/10/04 06:30:42;;;;;;;1.98;1.48;;;19.20;71.20;;;;;;5112815;28;20286;-76
2023/10/04 06:33:08;;;;;;;1.63;1.27;;;19.20;71.10;;;;;;5112542;28;20173;-75
2023/10/04 06:35:34;;;;;;;1.48;1.35;;;19.20;71.10;;;;;;5112128;28;20212;-75
2023/10/04 06:38:05;;;;;;;1.83;1.40;;;19.30;71.20;;;;;;5112509;28;20173;-74
2023/10/04 06:40:31;;;;;;;2.20;1.50;;;19.20;71.20;;;;;;5112620;28;20188;-74
2023/10/04 06:42:59;;;;;;;1.92;1.60;;;19.20;71.20;;;;;;5112148;28;20177;-75
2023/10/04 06:45:26;;;;;;;2.45;1.60;;;19.20;71.10;;;;;;5112609;28;20211;-76
2023/10/04 06:47:53;;;;;;;1.70;1.20;;;19.20;71.90;;;;;;5112547;28;20225;-76
2023/10/04 06:50:20;;;;;;;1.83;1.10;;;19.30;71.10;;;;;;5111899;28;20181;-75
2023/10/04 06:52:49;;;;;;;2.47;1.27;;;19.30;71.10;;;;;;5112803;28;20208;-76
2023/10/04 06:55:18;;;;;;;1.48;1.10;;;19.30;71.00;;;;;;5112024;28;20209;-74
2023/10/04 06:57:44;;;;;;;2.03;1.40;;;19.30;71.00;;;;;;5112506;28;20533;-74
2023/10/04 07:00:19;;;;;;;2.40;1.50;;;19.30;70.90;;;;;;5112247;28;20181;-73
2023/10/04 07:02:46;;;;;;;2.72;1.20;;;19.30;71.00;;;;;;5112074;28;20176;-76
2023/10/04 07:05:19;;;;;;;2.65;1.63;;;19.30;70.90;;;;;;5112289;28;20177;-75
2023/10/04 07:07:49;;;;;;;2.88;1.58;;;19.30;70.90;;;;;;5094600;28;20260;-74
2023/10/04 07:10:15;;;;;;;1.70;1.58;;;19.40;70.90;;;;;;5111476;28;20647;-72
2023/10/04 07:12:43;;;;;;;1.40;1.15;;;19.40;70.90;;;;;;5112333;28;20177;-74
2023/10/04 07:15:12;;;;;;;1.48;1.38;;;19.30;70.90;;;;;;5112332;28;20296;-73
2023/10/04 07:17:39;;;;;;;3.15;1.40;;;19.40;70.90;;;;;;5111753;28;20169;-74
2023/10/04 07:20:14;;;;;;;1.77;1.52;;;19.40;70.80;;;;;;5112270;28;20177;-72
2023/10/04 07:22:47;;;;;;;3.35;1.50;;;19.40;70.80;;;;;;5112375;28;20177;-72
2023/10/04 07:25:14;;;;;;;2.15;1.60;;;19.40;70.70;;;;;;5111363;28;20195;-72
2023/10/04 07:27:44;;;;;;;2.22;1.33;;;19.40;70.70;;;;;;5115250;28;20201;-75
2023/10/04 07:30:13;;;;;;;1.73;1.38;;;19.40;70.60;;;;;;5116112;28;20177;-76
2023/10/04 07:32:46;;;;;;;3.75;1.40;;;19.40;70.70;;;;;;5115509;28;20635;-76
2023/10/04 07:35:14;;;;;;;2.85;1.30;;;19.50;70.60;;;;;;5115520;28;20340;-75
2023/10/04 07:37:40;;;;;;;1.95;1.48;;;19.50;70.80;;;;;;5114890;28;20188;-75
2023/10/04 07:40:09;;;;;;;1.58;1.42;;;19.50;70.60;;;;;;5115546;28;20641;-74
2023/10/04 07:42:38;;;;;;;2.10;1.40;;;19.50;70.60;;;;;;5116087;28;20522;-75
2023/10/04 07:45:05;;;;;;;2.35;1.40;;;19.50;70.60;;;;;;5114800;28;20210;-76
2023/10/04 07:47:31;;;;;;;1.42;1.33;;;19.60;70.50;;;;;;5115412;28;20233;-76
2023/10/04 07:49:56;;;;;;;2.03;1.42;;;19.50;70.50;;;;;;5115907;28;20649;-76
2023/10/04 07:52:22;;;;;;;3.17;1.50;;;19.50;70.50;;;;;;5114597;28;20173;-76
2023/10/04 07:54:47;;;;;;;2.13;1.60;;;19.50;70.30;;;;;;5115399;28;20216;-75
2023/10/04 07:57:13;;;;;;;1.58;1.45;;;19.60;70.30;;;;;;5115437;28;20181;-74
2023/10/04 07:59:41;;;;;;;2.35;1.55;;;19.60;70.20;;;;;;5114802;28;20535;-75
2023/10/04 08:02:06;;;;;;;2.40;1.55;;;19.60;70.00;;;;;;5115314;28;20211;-75
2023/10/04 08:04:33;;;;;;;3.50;1.85;;;19.70;70.00;;;;;;5115304;28;20197;-75
2023/10/04 08:06:59;;;;;;;3.08;1.70;;;19.70;69.90;;;;;;5114608;28;20226;-75
2023/10/04 08:09:24;;;;;;;1.55;1.20;;;19.70;69.90;;;;;;5115329;28;20169;-75
2023/10/04 08:11:52;;;;;;;2.65;1.65;;;19.70;69.80;;;;;;5115417;28;20173;-74
2023/10/04 08:14:20;;;;;;;3.42;1.70;;;19.80;69.80;;;;;;5114061;28;20645;-73
2023/10/04 08:16:49;;;;;;;2.63;1.63;;;19.80;69.80;;;;;;5115317;28;20173;-74
2023/10/04 08:19:15;;;;;;;2.30;1.50;;;19.80;69.80;;;;;;5114838;28;20305;-72
2023/10/04 08:21:41;;;;;;;3.38;1.40;;;19.80;69.70;;;;;;5114278;28;20612;-73
2023/10/04 08:24:07;;;;;;;1.92;1.20;;;19.80;69.70;;;;;;5114914;28;20229;-73
2023/10/04 08:26:33;;;;;;;1.80;1.48;;;19.80;69.60;;;;;;5115100;28;20208;-74
2023/10/04 08:28:59;;;;;;;3.10;1.75;;;19.80;69.60;;;;;;5114210;28;20207;-74
2023/10/04 08:31:24;;;;;;;2.92;1.90;;;19.80;69.60;;;;;;5114984;28;20180;-75
2023/10/04 08:33:50;;;;;;;1.75;1.38;;;19.80;69.60;;;;;;5114297;28;20165;-75
2023/10/04 08:36:16;;;;;;;1.98;1.67;;;19.90;69.60;;;;;;5114776;28;20236;-73
2023/10/04 08:38:42;;;;;;;2.70;1.70;;;19.90;69.60;;;;;;5114025;28;20607;-73
2023/10/04 08:41:08;;;;;;;3.95;1.95;;;19.90;69.60;;;;;;5113908;28;20189;-74
2023/10/04 08:43:34;;;;;;;3.88;1.88;;;19.90;69.60;;;;;;5096427;28;20176;-77
2023/10/04 08:46:00;;;;;;;1.75;1.45;;;19.90;69.50;;;;;;5114425;28;20180;-73
2023/10/04 08:48:26;;;;;;;2.95;1.60;;;19.90;69.60;;;;;;5078660;28;20173;-76
2023/10/04 08:51:01;;;;;;;3.72;1.98;;;19.90;69.70;;;;;;5096709;28;20184;-76
2023/10/04 08:53:46;;;;;;;3.25;2.13;;;19.90;69.80;;;;;;5097205;28;20249;-75
2023/10/04 08:56:16;;;;;;;1.98;1.40;;;19.90;69.80;;;;;;5097009;28;20666;-75
2023/10/04 08:58:43;;;;;;;1.92;1.45;;;19.90;69.70;;;;;;5114447;28;20177;-75
2023/10/04 09:01:10;;;;;;;2.08;1.25;;;19.90;69.60;;;;;;5114000;28;20177;-75
2023/10/04 09:03:36;;;;;;;2.30;1.83;;;20.00;69.60;;;;;;5113637;28;20222;-76
2023/10/04 09:06:04;;;;;;;2.00;1.80;;;20.00;69.60;;;;;;5095994;28;20168;-74
2023/10/04 09:08:30;;;;;;;2.75;1.50;;;20.00;69.60;;;;;;5113948;28;20681;-74
2023/10/04 09:10:56;;;;;;;1.90;1.30;;;20.00;69.60;;;;;;5113432;28;20173;-73
2023/10/04 09:13:22;;;;;;;2.53;1.63;;;20.00;69.60;;;;;;5113606;28;20173;-74
2023/10/04 09:15:48;;;;;;;2.50;1.50;;;20.00;69.60;;;;;;5113921;28;20287;-74
2023/10/04 09:18:24;;;;;;;2.53;1.70;;;20.10;69.60;;;;;;5112970;28;20260;-73
2023/10/04 09:20:49;;;;;;;3.50;2.13;;;20.10;69.60;;;;;;5114007;28;20730;-73
2023/10/04 09:23:16;;;;;;;3.72;1.77;;;20.10;69.60;;;;;;5112875;28;20212;-72
2023/10/04 09:25:43;;;;;;;2.20;1.77;;;20.10;69.60;;;;;;5113766;28;20181;-74
2023/10/04 09:28:10;;;;;;;2.78;1.60;;;20.10;69.60;;;;;;5113552;28;20580;-74
2023/10/04 09:30:36;;;;;;;1.45;1.33;;;20.10;69.70;;;;;;5095256;28;20246;-75
2023/10/04 09:33:06;;;;;;;3.03;2.00;;;20.10;69.70;;;;;;5113569;28;20632;-74
2023/10/04 09:35:45;;;;;;;3.78;1.95;;;20.10;69.60;;;;;;5113628;28;20220;-76
2023/10/04 09:38:15;;;;;;;1.65;1.50;;;20.10;69.60;;;;;;5112572;28;20616;-74
2023/10/04 09:40:52;;;;;;;3.45;1.95;;;20.20;69.70;;;;;;5113577;28;20177;-74
2023/10/04 09:43:19;;;;;;;4.63;2.10;;;20.10;69.50;;;;;;5113362;28;20257;-73
2023/10/04 09:45:58;;;;;;;2.60;1.65;;;20.10;69.50;;;;;;5094717;28;20173;-76
2023/10/04 09:48:25;;;;;;;2.45;1.55;;;20.10;69.50;;;;;;5113120;28;20686;-76
2023/10/04 09:51:00;;;;;;;3.42;1.83;;;20.00;69.40;;;;;;5113307;28;20180;-76
2023/10/04 09:53:26;;;;;;;2.35;1.92;;;20.10;69.50;;;;;;5095992;28;20165;-75
2023/10/04 09:55:52;;;;;;;2.47;1.98;;;20.10;69.50;;;;;;5113533;28;20216;-75
2023/10/04 09:58:18;;;;;;;2.55;1.67;;;20.10;69.60;;;;;;5112265;28;20254;-74
2023/10/04 10:00:44;;;;;;;2.97;1.80;;;20.10;69.60;;;;;;5113303;28;20214;-74
2023/10/04 10:03:09;;;;;;;2.10;1.52;;;20.10;69.60;;;;;;5078027;28;20225;-74
2023/10/04 10:05:35;;;;;;;2.70;1.77;;;20.10;69.70;;;;;;5094225;28;20242;-74
2023/10/04 10:08:06;;;;;;;3.17;1.60;;;20.10;69.60;;;;;;5113070;28;20189;-74
2023/10/04 10:10:34;;;;;;;3.47;1.73;;;20.10;69.60;;;;;;5113146;28;20584;-74
2023/10/04 10:13:00;;;;;;;2.65;1.70;;;20.10;69.60;;;;;;5112224;28;20172;-73
2023/10/04 10:15:26;;;;;;;2.25;1.40;;;20.10;69.70;;;;;;5094707;28;20212;-74
2023/10/04 10:17:52;;;;;;;2.17;1.63;;;20.10;69.70;;;;;;5113102;28;20204;-74
2023/10/04 10:20:19;;;;;;;1.75;1.42;;;20.10;69.70;;;;;;5093818;28;20208;-72
2023/10/04 10:23:00;;;;;;;1.92;1.40;;;20.10;69.70;;;;;;5078636;28;20190;-72
2023/10/04 10:25:29;;;;;;;2.58;1.73;;;20.10;69.80;;;;;;5112922;28;20207;-74
2023/10/04 10:27:58;;;;;;;2.35;1.70;;;20.00;69.80;;;;;;5112439;28;20165;-76
2023/10/04 10:30:24;;;;;;;2.28;1.73;;;20.00;69.80;;;;;;5112789;28;20655;-75
2023/10/04 10:32:59;;;;;;;2.33;1.70;;;20.00;69.90;;;;;;5094875;28;20181;-76
2023/10/04 10:36:07;;;;;;;2.00;1.55;;;20.00;70.00;;;;;;5111954;28;20303;-74
2023/10/04 10:38:41;;;;;;;3.72;1.88;;;20.00;70.00;;;;;;5112141;28;20173;-73
2023/10/04 10:41:08;;;;;;;4.38;1.58;;;20.00;70.00;;;;;;5111932;28;20172;-73
2023/10/04 10:43:35;;;;;;;2.47;1.77;;;20.00;70.10;;;;;;5112849;28;20177;-76
2023/10/04 10:46:25;;;;;;;2.67;1.73;;;20.00;70.00;;;;;;5112637;28;20177;-76
2023/10/04 10:48:58;;;;;;;3.08;1.70;;;20.00;69.90;;;;;;5111971;28;20662;-76
2023/10/04 10:51:42;;;;;;;2.78;2.10;;;20.00;69.80;;;;;;5094838;28;20181;-76
2023/10/04 10:54:08;;;;;;;1.50;1.40;;;20.00;69.80;;;;;;5112565;28;20245;-75
2023/10/04 10:56:37;;;;;;;3.05;2.03;;;20.00;69.90;;;;;;5112030;28;20623;-74
2023/10/04 10:59:04;;;;;;;2.22;1.60;;;20.00;69.80;;;;;;5112676;28;20177;-73
2023/10/04 11:01:30;;;;;;;2.30;1.60;;;20.10;69.80;;;;;;5095022;28;20194;-75
2023/10/04 11:03:58;;;;;;;4.05;1.95;;;20.00;69.70;;;;;;5116592;28;20242;-76
2023/10/04 11:06:23;;;;;;;3.90;1.90;;;20.00;69.70;;;;;;5116599;28;20260;-75
2023/10/04 11:08:49;;;;;;;3.15;2.17;;;20.00;69.80;;;;;;5115875;28;20261;-74
2023/10/04 11:11:14;;;;;;;2.95;1.67;;;20.00;69.80;;;;;;5116163;28;20226;-73
2023/10/04 11:13:43;;;;;;;3.67;1.60;;;20.00;69.70;;;;;;5098274;28;20214;-75
2023/10/04 11:16:09;;;;;;;3.00;1.70;;;20.00;69.60;;;;;;5115422;28;20226;-73
2023/10/04 11:18:35;;;;;;;4.18;1.88;;;20.00;69.60;;;;;;5116262;28;20293;-73
2023/10/04 11:21:03;;;;;;;3.67;1.80;;;20.10;70.50;;;;;;5116377;28;20176;-72
2023/10/04 11:23:30;;;;;;;3.25;1.90;;;20.00;69.70;;;;;;5115509;28;20201;-73
2023/10/04 11:25:58;;;;;;;2.83;1.90;;;20.10;69.60;;;;;;5116476;28;20503;-73
2023/10/04 11:28:24;;;;;;;1.95;1.40;;;20.10;69.60;;;;;;5115942;28;20170;-75
2023/10/04 11:30:50;;;;;;;2.85;1.77;;;20.10;69.60;;;;;;5115441;28;20170;-75
2023/10/04 11:33:16;;;;;;;1.95;1.70;;;20.10;69.60;;;;;;5097752;28;20204;-73
2023/10/04 11:35:43;;;;;;;2.35;1.63;;;20.00;69.60;;;;;;5098180;28;20209;-74
2023/10/04 11:38:19;;;;;;;2.60;1.90;;;20.10;69.60;;;;;;5114885;28;20260;-74
2023/10/04 11:40:48;;;;;;;2.58;1.83;;;20.20;69.50;;;;;;5116123;28;20180;-74
2023/10/04 11:43:14;;;;;;;2.72;2.15;;;20.20;69.30;;;;;;5097614;28;20193;-74
2023/10/04 11:45:40;;;;;;;2.85;1.90;;;20.20;69.20;;;;;;5096921;28;20169;-75
2023/10/04 11:48:10;;;;;;;2.30;1.70;;;20.20;69.10;;;;;;5115644;28;20715;-75
2023/10/04 11:50:53;;;;;;;2.67;1.77;;;20.20;69.10;;;;;;5115926;28;20671;-76
2023/10/04 11:53:30;;;;;;;3.45;1.77;;;20.20;69.10;;;;;;5114545;28;20555;-75
2023/10/04 11:56:06;;;;;;;3.13;1.50;;;20.20;69.10;;;;;;5115675;28;20205;-74
2023/10/04 11:58:32;;;;;;;2.75;1.85;;;20.20;69.10;;;;;;5114981;28;20207;-74
2023/10/04 12:01:05;;;;;;;4.93;2.22;;;20.20;69.30;;;;;;5097209;28;20196;-76
2023/10/04 12:03:32;;;;;;;2.67;1.80;;;20.20;69.30;;;;;;5115388;28;20173;-75
2023/10/04 12:05:59;;;;;;;4.00;1.92;;;20.20;69.20;;;;;;5114743;28;20177;-76
2023/10/04 12:08:25;;;;;;;3.35;1.75;;;20.20;69.20;;;;;;5115052;28;20256;-74
2023/10/04 12:10:50;;;;;;;4.03;1.80;;;20.20;69.10;;;;;;5115617;28;20268;-74
2023/10/04 12:13:16;;;;;;;2.15;1.52;;;20.20;69.00;;;;;;5112983;28;20256;-72
2023/10/04 12:15:42;;;;;;;2.13;1.80;;;20.20;68.90;;;;;;5115276;28;20296;-74
2023/10/04 12:18:09;;;;;;;2.72;1.83;;;20.20;69.00;;;;;;5115048;28;20534;-74
2023/10/04 12:20:36;;;;;;;3.00;1.60;;;20.20;69.10;;;;;;5114420;28;20173;-73
2023/10/04 12:23:01;;;;;;;3.90;2.10;;;20.20;69.20;;;;;;5114917;28;20627;-72
2023/10/04 12:25:28;;;;;;;3.00;2.25;;;20.20;69.20;;;;;;5114943;28;20253;-73
2023/10/04 12:27:54;;;;;;;3.22;2.10;;;20.20;69.20;;;;;;5114560;28;20181;-75
2023/10/04 12:30:21;;;;;;;2.45;1.77;;;20.20;69.10;;;;;;5114824;28;20310;-75
2023/10/04 12:32:46;;;;;;;1.98;1.77;;;20.20;69.10;;;;;;5115041;28;20590;-74
2023/10/04 12:35:13;;;;;;;2.42;1.60;;;20.20;69.20;;;;;;5113851;28;20223;-73
2023/10/04 12:37:39;;;;;;;3.35;2.05;;;20.20;69.20;;;;;;5114729;28;20173;-75
2023/10/04 12:40:18;;;;;;;2.90;1.92;;;20.20;69.20;;;;;;5114101;28;20174;-74
2023/10/04 12:42:45;;;;;;;4.13;1.88;;;20.20;69.30;;;;;;5114938;28;20181;-75
2023/10/04 12:45:11;;;;;;;2.95;2.00;;;20.20;69.30;;;;;;5114482;28;20188;-75
2023/10/04 12:47:36;;;;;;;2.88;2.17;;;20.20;69.30;;;;;;5113809;28;20220;-76
2023/10/04 12:50:03;;;;;;;3.55;2.25;;;20.20;69.20;;;;;;5114452;28;20253;-76